sensor_id;sensor_type;location;lat;lon;timestamp;P1;durP1;ratioP1;P2;durP2;ratioP2
53694;SDS011;39588;51.124;7.190;2023-08-30T00:00:37;3.00;;;2.73;;
53694;SDS011;39588;51.124;7.190;2023-08-30T00:03:04;2.33;;;1.90;;
53694;SDS011;39588;51.124;7.190;2023-08-30T00:05:31;2.03;;;1.93;;
53694;SDS011;39588;51.124;7.190;2023-08-30T00:07:56;4.70;;;3.10;;
53694;SDS011;39588;51.124;7.190;2023-08-30T00:10:22;2.93;;;2.73;;
53694;SDS011;39588;51.124;7.190;2023-08-30T00:12:48;2.30;;;2.10;;
53694;SDS011;39588;51.124;7.190;2023-08-30T00:15:14;1.77;;;1.67;;
53694;SDS011;39588;51.124;7.190;2023-08-30T00:17:40;5.47;;;3.70;;
53694;SDS011;39588;51.124;7.190;2023-08-30T00:20:06;3.87;;;3.53;;
53694;SDS011;39588;51.124;7.190;2023-08-30T00:22:33;13.60;;;3.83;;
53694;SDS011;39588;51.124;7.190;2023-08-30T00:24:59;3.03;;;2.73;;
53694;SDS011;39588;51.124;7.190;2023-08-30T00:27:26;6.00;;;3.03;;
53694;SDS011;39588;51.124;7.190;2023-08-30T00:29:51;2.97;;;2.73;;
53694;SDS011;39588;51.124;7.190;2023-08-30T00:32:17;4.33;;;3.93;;
53694;SDS011;39588;51.124;7.190;2023-08-30T00:34:42;3.47;;;3.27;;
53694;SDS011;39588;51.124;7.190;2023-08-30T00:37:08;20.93;;;4.40;;
53694;SDS011;39588;51.124;7.190;2023-08-30T00:39:37;4.67;;;4.27;;
53694;SDS011;39588;51.124;7.190;2023-08-30T00:42:03;6.23;;;5.63;;
53694;SDS011;39588;51.124;7.190;2023-08-30T00:44:31;4.00;;;3.57;;
53694;SDS011;39588;51.124;7.190;2023-08-30T00:46:57;3.90;;;3.60;;
53694;SDS011;39588;51.124;7.190;2023-08-30T00:49:23;4.80;;;3.67;;
53694;SDS011;39588;51.124;7.190;2023-08-30T00:51:49;4.80;;;2.93;;
53694;SDS011;39588;51.124;7.190;2023-08-30T00:54:15;3.47;;;3.17;;
53694;SDS011;39588;51.124;7.190;2023-08-30T00:56:41;5.07;;;4.50;;
53694;SDS011;39588;51.124;7.190;2023-08-30T00:59:07;3.47;;;3.17;;
53694;SDS011;39588;51.124;7.190;2023-08-30T01:01:34;6.37;;;4.27;;
53694;SDS011;39588;51.124;7.190;2023-08-30T01:04:00;3.83;;;3.40;;
53694;SDS011;39588;51.124;7.190;2023-08-30T01:06:25;4.33;;;3.27;;
53694;SDS011;39588;51.124;7.190;2023-08-30T01:08:51;3.73;;;3.43;;
53694;SDS011;39588;51.124;7.190;2023-08-30T01:11:32;21.83;;;3.90;;
53694;SDS011;39588;51.124;7.190;2023-08-30T01:14:08;10.93;;;4.17;;
53694;SDS011;39588;51.124;7.190;2023-08-30T01:16:37;4.97;;;4.27;;
53694;SDS011;39588;51.124;7.190;2023-08-30T01:19:04;4.43;;;3.97;;
53694;SDS011;39588;51.124;7.190;2023-08-30T01:21:48;3.43;;;2.40;;
53694;SDS011;39588;51.124;7.190;2023-08-30T01:27:33;5.93;;;4.30;;
53694;SDS011;39588;51.124;7.190;2023-08-30T01:30:01;3.27;;;2.97;;
53694;SDS011;39588;51.124;7.190;2023-08-30T01:32:28;4.87;;;4.00;;
53694;SDS011;39588;51.124;7.190;2023-08-30T01:34:55;4.43;;;4.03;;
53694;SDS011;39588;51.124;7.190;2023-08-30T01:37:22;4.07;;;3.57;;
53694;SDS011;39588;51.124;7.190;2023-08-30T01:39:48;4.80;;;3.97;;
53694;SDS011;39588;51.124;7.190;2023-08-30T01:42:14;2.90;;;2.70;;
53694;SDS011;39588;51.124;7.190;2023-08-30T01:44:40;6.73;;;3.83;;
53694;SDS011;39588;51.124;7.190;2023-08-30T01:47:09;3.03;;;2.77;;
53694;SDS011;39588;51.124;7.190;2023-08-30T01:49:36;2.07;;;1.90;;
53694;SDS011;39588;51.124;7.190;2023-08-30T01:52:04;5.47;;;2.93;;
53694;SDS011;39588;51.124;7.190;2023-08-30T01:54:31;2.60;;;2.23;;
53694;SDS011;39588;51.124;7.190;2023-08-30T01:56:57;2.40;;;2.20;;
53694;SDS011;39588;51.124;7.190;2023-08-30T01:59:23;3.13;;;2.93;;
53694;SDS011;39588;51.124;7.190;2023-08-30T02:01:50;3.43;;;3.10;;
53694;SDS011;39588;51.124;7.190;2023-08-30T02:04:16;3.90;;;3.60;;
53694;SDS011;39588;51.124;7.190;2023-08-30T02:06:45;3.07;;;2.30;;
53694;SDS011;39588;51.124;7.190;2023-08-30T02:09:28;2.10;;;1.60;;
53694;SDS011;39588;51.124;7.190;2023-08-30T02:12:03;3.13;;;2.90;;
53694;SDS011;39588;51.124;7.190;2023-08-30T02:14:31;2.00;;;1.90;;
53694;SDS011;39588;51.124;7.190;2023-08-30T02:16:58;3.13;;;2.90;;
53694;SDS011;39588;51.124;7.190;2023-08-30T02:19:23;3.90;;;3.57;;
53694;SDS011;39588;51.124;7.190;2023-08-30T02:21:50;2.60;;;2.50;;
53694;SDS011;39588;51.124;7.190;2023-08-30T02:24:15;3.23;;;2.93;;
53694;SDS011;39588;51.124;7.190;2023-08-30T02:26:41;3.47;;;2.73;;
53694;SDS011;39588;51.124;7.190;2023-08-30T02:29:07;3.07;;;2.57;;
53694;SDS011;39588;51.124;7.190;2023-08-30T02:31:33;6.97;;;4.10;;
53694;SDS011;39588;51.124;7.190;2023-08-30T02:33:59;3.53;;;2.93;;
53694;SDS011;39588;51.124;7.190;2023-08-30T02:36:25;4.17;;;3.53;;
53694;SDS011;39588;51.124;7.190;2023-08-30T02:38:51;16.20;;;4.33;;
53694;SDS011;39588;51.124;7.190;2023-08-30T02:41:17;2.17;;;2.07;;
53694;SDS011;39588;51.124;7.190;2023-08-30T02:43:43;2.23;;;2.10;;
53694;SDS011;39588;51.124;7.190;2023-08-30T02:46:09;4.40;;;2.93;;
53694;SDS011;39588;51.124;7.190;2023-08-30T02:48:35;2.23;;;2.10;;
53694;SDS011;39588;51.124;7.190;2023-08-30T02:51:00;2.87;;;2.67;;
53694;SDS011;39588;51.124;7.190;2023-08-30T02:53:26;3.57;;;3.37;;
53694;SDS011;39588;51.124;7.190;2023-08-30T02:55:51;3.23;;;2.80;;
53694;SDS011;39588;51.124;7.190;2023-08-30T02:58:20;5.87;;;3.63;;
53694;SDS011;39588;51.124;7.190;2023-08-30T03:00:46;2.83;;;2.63;;
53694;SDS011;39588;51.124;7.190;2023-08-30T03:03:12;5.80;;;3.77;;
53694;SDS011;39588;51.124;7.190;2023-08-30T03:05:38;3.20;;;2.73;;
53694;SDS011;39588;51.124;7.190;2023-08-30T03:08:05;3.87;;;3.33;;
53694;SDS011;39588;51.124;7.190;2023-08-30T03:10:31;6.40;;;3.77;;
53694;SDS011;39588;51.124;7.190;2023-08-30T03:12:57;5.60;;;3.67;;
53694;SDS011;39588;51.124;7.190;2023-08-30T03:15:23;4.20;;;3.87;;
53694;SDS011;39588;51.124;7.190;2023-08-30T03:17:49;7.80;;;4.23;;
53694;SDS011;39588;51.124;7.190;2023-08-30T03:20:15;5.23;;;3.87;;
53694;SDS011;39588;51.124;7.190;2023-08-30T03:22:41;4.50;;;4.03;;
53694;SDS011;39588;51.124;7.190;2023-08-30T03:25:07;14.50;;;3.93;;
53694;SDS011;39588;51.124;7.190;2023-08-30T03:27:34;5.27;;;4.67;;
53694;SDS011;39588;51.124;7.190;2023-08-30T03:30:00;7.20;;;4.60;;
53694;SDS011;39588;51.124;7.190;2023-08-30T03:32:27;4.70;;;4.30;;
53694;SDS011;39588;51.124;7.190;2023-08-30T03:34:52;5.97;;;3.63;;
53694;SDS011;39588;51.124;7.190;2023-08-30T03:37:18;5.63;;;3.03;;
53694;SDS011;39588;51.124;7.190;2023-08-30T03:39:44;3.47;;;2.97;;
53694;SDS011;39588;51.124;7.190;2023-08-30T03:42:09;4.87;;;3.63;;
53694;SDS011;39588;51.124;7.190;2023-08-30T03:44:37;4.20;;;3.50;;
53694;SDS011;39588;51.124;7.190;2023-08-30T03:47:02;4.03;;;3.63;;
53694;SDS011;39588;51.124;7.190;2023-08-30T03:49:28;3.93;;;3.63;;
53694;SDS011;39588;51.124;7.190;2023-08-30T03:51:54;7.30;;;3.43;;
53694;SDS011;39588;51.124;7.190;2023-08-30T03:54:20;4.63;;;4.30;;
53694;SDS011;39588;51.124;7.190;2023-08-30T03:56:46;3.83;;;3.53;;
53694;SDS011;39588;51.124;7.190;2023-08-30T03:59:12;4.47;;;3.60;;
53694;SDS011;39588;51.124;7.190;2023-08-30T04:01:38;5.53;;;4.13;;
53694;SDS011;39588;51.124;7.190;2023-08-30T04:04:04;4.03;;;3.63;;
53694;SDS011;39588;51.124;7.190;2023-08-30T04:06:30;4.90;;;4.00;;
53694;SDS011;39588;51.124;7.190;2023-08-30T04:08:56;8.40;;;5.57;;
53694;SDS011;39588;51.124;7.190;2023-08-30T04:11:22;16.07;;;5.27;;
53694;SDS011;39588;51.124;7.190;2023-08-30T04:13:48;3.97;;;3.67;;
53694;SDS011;39588;51.124;7.190;2023-08-30T04:16:14;6.13;;;4.20;;
53694;SDS011;39588;51.124;7.190;2023-08-30T04:18:40;5.40;;;4.07;;
53694;SDS011;39588;51.124;7.190;2023-08-30T04:21:06;6.40;;;3.87;;
53694;SDS011;39588;51.124;7.190;2023-08-30T04:23:33;4.53;;;4.13;;
53694;SDS011;39588;51.124;7.190;2023-08-30T04:25:59;4.20;;;3.27;;
53694;SDS011;39588;51.124;7.190;2023-08-30T04:28:25;6.43;;;4.90;;
53694;SDS011;39588;51.124;7.190;2023-08-30T04:30:55;5.13;;;4.27;;
53694;SDS011;39588;51.124;7.190;2023-08-30T04:33:21;7.10;;;5.37;;
53694;SDS011;39588;51.124;7.190;2023-08-30T04:35:53;2.70;;;2.50;;
53694;SDS011;39588;51.124;7.190;2023-08-30T04:38:20;7.97;;;5.53;;
53694;SDS011;39588;51.124;7.190;2023-08-30T04:40:46;5.07;;;4.57;;
53694;SDS011;39588;51.124;7.190;2023-08-30T04:43:12;8.47;;;3.23;;
53694;SDS011;39588;51.124;7.190;2023-08-30T04:45:38;7.20;;;4.50;;
53694;SDS011;39588;51.124;7.190;2023-08-30T04:48:04;4.90;;;4.47;;
53694;SDS011;39588;51.124;7.190;2023-08-30T04:50:30;4.37;;;2.70;;
53694;SDS011;39588;51.124;7.190;2023-08-30T04:52:56;6.00;;;3.60;;
53694;SDS011;39588;51.124;7.190;2023-08-30T04:55:25;5.13;;;3.57;;
53694;SDS011;39588;51.124;7.190;2023-08-30T04:57:53;9.53;;;5.67;;
53694;SDS011;39588;51.124;7.190;2023-08-30T05:00:18;14.57;;;5.73;;
53694;SDS011;39588;51.124;7.190;2023-08-30T05:02:44;4.10;;;3.50;;
53694;SDS011;39588;51.124;7.190;2023-08-30T05:05:11;6.03;;;4.60;;
53694;SDS011;39588;51.124;7.190;2023-08-30T05:07:38;11.83;;;4.67;;
53694;SDS011;39588;51.124;7.190;2023-08-30T05:10:04;5.20;;;4.67;;
53694;SDS011;39588;51.124;7.190;2023-08-30T05:12:30;3.83;;;3.53;;
53694;SDS011;39588;51.124;7.190;2023-08-30T05:14:56;11.03;;;5.27;;
53694;SDS011;39588;51.124;7.190;2023-08-30T05:17:22;7.30;;;4.77;;
53694;SDS011;39588;51.124;7.190;2023-08-30T05:19:48;6.73;;;4.13;;
53694;SDS011;39588;51.124;7.190;2023-08-30T05:22:14;7.33;;;3.80;;
53694;SDS011;39588;51.124;7.190;2023-08-30T05:24:40;3.23;;;2.93;;
53694;SDS011;39588;51.124;7.190;2023-08-30T05:27:06;4.60;;;4.20;;
53694;SDS011;39588;51.124;7.190;2023-08-30T05:29:32;4.70;;;4.10;;
53694;SDS011;39588;51.124;7.190;2023-08-30T05:31:58;4.27;;;3.90;;
53694;SDS011;39588;51.124;7.190;2023-08-30T05:34:24;6.80;;;4.80;;
53694;SDS011;39588;51.124;7.190;2023-08-30T05:36:51;5.97;;;4.93;;
53694;SDS011;39588;51.124;7.190;2023-08-30T05:39:18;5.40;;;4.90;;
53694;SDS011;39588;51.124;7.190;2023-08-30T05:41:43;5.70;;;3.80;;
53694;SDS011;39588;51.124;7.190;2023-08-30T05:44:09;7.20;;;5.23;;
53694;SDS011;39588;51.124;7.190;2023-08-30T05:46:35;6.70;;;5.40;;
53694;SDS011;39588;51.124;7.190;2023-08-30T05:49:01;4.93;;;4.43;;
53694;SDS011;39588;51.124;7.190;2023-08-30T05:54:03;4.53;;;3.83;;
53694;SDS011;39588;51.124;7.190;2023-08-30T05:56:29;8.83;;;5.63;;
53694;SDS011;39588;51.124;7.190;2023-08-30T05:58:55;4.20;;;3.80;;
53694;SDS011;39588;51.124;7.190;2023-08-30T06:01:21;4.30;;;3.90;;
53694;SDS011;39588;51.124;7.190;2023-08-30T06:03:47;5.33;;;4.53;;
53694;SDS011;39588;51.124;7.190;2023-08-30T06:06:13;4.60;;;4.17;;
53694;SDS011;39588;51.124;7.190;2023-08-30T06:08:39;4.37;;;3.17;;
53694;SDS011;39588;51.124;7.190;2023-08-30T06:11:04;3.73;;;3.47;;
53694;SDS011;39588;51.124;7.190;2023-08-30T06:13:30;4.30;;;3.90;;
53694;SDS011;39588;51.124;7.190;2023-08-30T06:15:56;5.80;;;5.07;;
53694;SDS011;39588;51.124;7.190;2023-08-30T06:18:22;6.63;;;4.57;;
53694;SDS011;39588;51.124;7.190;2023-08-30T06:20:47;9.57;;;5.47;;
53694;SDS011;39588;51.124;7.190;2023-08-30T06:23:14;4.07;;;3.73;;
53694;SDS011;39588;51.124;7.190;2023-08-30T06:25:43;5.87;;;4.67;;
53694;SDS011;39588;51.124;7.190;2023-08-30T06:28:08;3.53;;;3.23;;
53694;SDS011;39588;51.124;7.190;2023-08-30T06:30:34;5.27;;;4.37;;
53694;SDS011;39588;51.124;7.190;2023-08-30T06:33:00;4.23;;;3.83;;
53694;SDS011;39588;51.124;7.190;2023-08-30T06:35:26;3.43;;;3.20;;
53694;SDS011;39588;51.124;7.190;2023-08-30T06:37:52;4.27;;;3.83;;
53694;SDS011;39588;51.124;7.190;2023-08-30T06:40:20;4.03;;;3.70;;
53694;SDS011;39588;51.124;7.190;2023-08-30T06:42:46;3.80;;;3.43;;
53694;SDS011;39588;51.124;7.190;2023-08-30T06:45:11;16.93;;;4.47;;
53694;SDS011;39588;51.124;7.190;2023-08-30T06:47:37;4.63;;;3.90;;
53694;SDS011;39588;51.124;7.190;2023-08-30T06:50:03;3.37;;;3.17;;
53694;SDS011;39588;51.124;7.190;2023-08-30T06:52:29;4.13;;;3.73;;
53694;SDS011;39588;51.124;7.190;2023-08-30T06:54:55;5.43;;;4.13;;
53694;SDS011;39588;51.124;7.190;2023-08-30T06:57:21;5.53;;;4.33;;
53694;SDS011;39588;51.124;7.190;2023-08-30T06:59:47;4.07;;;3.37;;
53694;SDS011;39588;51.124;7.190;2023-08-30T07:02:13;5.23;;;3.50;;
53694;SDS011;39588;51.124;7.190;2023-08-30T07:04:39;3.97;;;3.37;;
53694;SDS011;39588;51.124;7.190;2023-08-30T07:07:05;9.67;;;4.67;;
53694;SDS011;39588;51.124;7.190;2023-08-30T07:09:31;5.43;;;3.67;;
53694;SDS011;39588;51.124;7.190;2023-08-30T07:11:58;4.10;;;3.83;;
53694;SDS011;39588;51.124;7.190;2023-08-30T07:14:23;5.10;;;4.47;;
53694;SDS011;39588;51.124;7.190;2023-08-30T07:16:51;4.77;;;4.27;;
53694;SDS011;39588;51.124;7.190;2023-08-30T07:19:16;5.27;;;4.23;;
53694;SDS011;39588;51.124;7.190;2023-08-30T07:21:42;2.97;;;2.77;;
53694;SDS011;39588;51.124;7.190;2023-08-30T07:24:08;3.43;;;3.17;;
53694;SDS011;39588;51.124;7.190;2023-08-30T07:26:34;4.77;;;3.13;;
53694;SDS011;39588;51.124;7.190;2023-08-30T07:29:00;3.23;;;2.93;;
53694;SDS011;39588;51.124;7.190;2023-08-30T07:31:26;3.13;;;2.90;;
53694;SDS011;39588;51.124;7.190;2023-08-30T07:33:52;14.37;;;3.17;;
53694;SDS011;39588;51.124;7.190;2023-08-30T07:36:18;2.67;;;2.43;;
53694;SDS011;39588;51.124;7.190;2023-08-30T07:38:44;6.53;;;3.97;;
53694;SDS011;39588;51.124;7.190;2023-08-30T07:41:10;4.27;;;3.30;;
53694;SDS011;39588;51.124;7.190;2023-08-30T07:43:35;3.57;;;3.00;;
53694;SDS011;39588;51.124;7.190;2023-08-30T07:46:01;2.80;;;2.60;;
53694;SDS011;39588;51.124;7.190;2023-08-30T07:48:27;2.53;;;2.33;;
53694;SDS011;39588;51.124;7.190;2023-08-30T07:50:53;3.13;;;2.77;;
53694;SDS011;39588;51.124;7.190;2023-08-30T07:53:18;2.43;;;2.30;;
53694;SDS011;39588;51.124;7.190;2023-08-30T07:55:48;6.50;;;2.53;;
53694;SDS011;39588;51.124;7.190;2023-08-30T07:58:19;1.73;;;1.63;;
53694;SDS011;39588;51.124;7.190;2023-08-30T08:00:44;1.83;;;1.73;;
53694;SDS011;39588;51.124;7.190;2023-08-30T08:03:10;2.50;;;2.30;;
53694;SDS011;39588;51.124;7.190;2023-08-30T08:05:36;3.23;;;2.43;;
53694;SDS011;39588;51.124;7.190;2023-08-30T08:08:02;4.80;;;1.90;;
53694;SDS011;39588;51.124;7.190;2023-08-30T08:10:31;2.10;;;1.87;;
53694;SDS011;39588;51.124;7.190;2023-08-30T08:12:59;2.50;;;2.30;;
53694;SDS011;39588;51.124;7.190;2023-08-30T08:15:25;3.03;;;2.47;;
53694;SDS011;39588;51.124;7.190;2023-08-30T08:17:51;1.30;;;1.23;;
53694;SDS011;39588;51.124;7.190;2023-08-30T08:20:17;2.77;;;2.53;;
53694;SDS011;39588;51.124;7.190;2023-08-30T08:22:42;1.53;;;1.47;;
53694;SDS011;39588;51.124;7.190;2023-08-30T08:25:08;2.20;;;2.10;;
53694;SDS011;39588;51.124;7.190;2023-08-30T08:27:35;2.47;;;2.27;;
53694;SDS011;39588;51.124;7.190;2023-08-30T08:30:01;2.37;;;2.17;;
53694;SDS011;39588;51.124;7.190;2023-08-30T08:32:29;3.20;;;2.67;;
53694;SDS011;39588;51.124;7.190;2023-08-30T08:34:55;2.17;;;1.97;;
53694;SDS011;39588;51.124;7.190;2023-08-30T08:37:21;1.57;;;1.37;;
53694;SDS011;39588;51.124;7.190;2023-08-30T08:39:47;1.77;;;1.67;;
53694;SDS011;39588;51.124;7.190;2023-08-30T08:42:18;1.07;;;1.07;;
53694;SDS011;39588;51.124;7.190;2023-08-30T08:44:47;1.53;;;1.43;;
53694;SDS011;39588;51.124;7.190;2023-08-30T08:47:16;1.50;;;1.40;;
53694;SDS011;39588;51.124;7.190;2023-08-30T08:49:44;2.03;;;1.67;;
53694;SDS011;39588;51.124;7.190;2023-08-30T08:52:10;1.47;;;1.37;;
53694;SDS011;39588;51.124;7.190;2023-08-30T08:54:39;3.73;;;1.13;;
53694;SDS011;39588;51.124;7.190;2023-08-30T08:57:08;2.57;;;1.97;;
53694;SDS011;39588;51.124;7.190;2023-08-30T08:59:34;1.50;;;1.43;;
53694;SDS011;39588;51.124;7.190;2023-08-30T09:02:01;1.63;;;1.20;;
53694;SDS011;39588;51.124;7.190;2023-08-30T09:04:31;1.83;;;1.23;;
53694;SDS011;39588;51.124;7.190;2023-08-30T09:07:00;1.33;;;1.23;;
53694;SDS011;39588;51.124;7.190;2023-08-30T09:09:27;1.33;;;1.30;;
53694;SDS011;39588;51.124;7.190;2023-08-30T09:11:53;1.80;;;1.37;;
53694;SDS011;39588;51.124;7.190;2023-08-30T09:14:19;1.60;;;1.50;;
53694;SDS011;39588;51.124;7.190;2023-08-30T09:16:58;1.40;;;1.30;;
53694;SDS011;39588;51.124;7.190;2023-08-30T09:19:28;1.47;;;1.37;;
53694;SDS011;39588;51.124;7.190;2023-08-30T09:21:58;0.90;;;0.90;;
53694;SDS011;39588;51.124;7.190;2023-08-30T09:24:24;5.80;;;1.90;;
53694;SDS011;39588;51.124;7.190;2023-08-30T09:26:51;2.17;;;1.60;;
53694;SDS011;39588;51.124;7.190;2023-08-30T09:29:18;3.50;;;1.37;;
53694;SDS011;39588;51.124;7.190;2023-08-30T09:31:45;1.80;;;1.50;;
53694;SDS011;39588;51.124;7.190;2023-08-30T09:34:11;1.70;;;1.57;;
53694;SDS011;39588;51.124;7.190;2023-08-30T09:36:38;2.87;;;1.13;;
53694;SDS011;39588;51.124;7.190;2023-08-30T09:39:05;2.50;;;2.30;;
53694;SDS011;39588;51.124;7.190;2023-08-30T09:41:35;1.20;;;1.20;;
53694;SDS011;39588;51.124;7.190;2023-08-30T09:44:17;6.93;;;1.73;;
53694;SDS011;39588;51.124;7.190;2023-08-30T09:46:49;0.90;;;0.90;;
53694;SDS011;39588;51.124;7.190;2023-08-30T09:49:18;1.10;;;1.10;;
53694;SDS011;39588;51.124;7.190;2023-08-30T09:51:46;1.67;;;1.23;;
53694;SDS011;39588;51.124;7.190;2023-08-30T09:54:16;1.40;;;1.30;;
53694;SDS011;39588;51.124;7.190;2023-08-30T09:56:53;2.50;;;1.93;;
53694;SDS011;39588;51.124;7.190;2023-08-30T09:59:21;2.30;;;1.43;;
53694;SDS011;39588;51.124;7.190;2023-08-30T10:01:47;1.13;;;1.13;;
53694;SDS011;39588;51.124;7.190;2023-08-30T10:04:13;1.87;;;1.77;;
53694;SDS011;39588;51.124;7.190;2023-08-30T10:06:40;2.57;;;1.40;;
53694;SDS011;39588;51.124;7.190;2023-08-30T10:09:07;1.70;;;1.20;;
53694;SDS011;39588;51.124;7.190;2023-08-30T10:11:34;0.87;;;0.87;;
53694;SDS011;39588;51.124;7.190;2023-08-30T10:14:02;0.80;;;0.80;;
53694;SDS011;39588;51.124;7.190;2023-08-30T10:16:37;0.70;;;0.70;;
53694;SDS011;39588;51.124;7.190;2023-08-30T10:19:25;0.97;;;0.97;;
53694;SDS011;39588;51.124;7.190;2023-08-30T10:24:28;3.70;;;0.90;;
53694;SDS011;39588;51.124;7.190;2023-08-30T10:27:00;1.07;;;1.07;;
53694;SDS011;39588;51.124;7.190;2023-08-30T10:29:29;1.30;;;1.20;;
53694;SDS011;39588;51.124;7.190;2023-08-30T10:32:04;1.03;;;0.80;;
53694;SDS011;39588;51.124;7.190;2023-08-30T10:34:31;1.40;;;0.93;;
53694;SDS011;39588;51.124;7.190;2023-08-30T10:37:02;3.60;;;1.23;;
53694;SDS011;39588;51.124;7.190;2023-08-30T10:39:34;0.97;;;0.97;;
53694;SDS011;39588;51.124;7.190;2023-08-30T10:42:08;1.50;;;1.40;;
53694;SDS011;39588;51.124;7.190;2023-08-30T10:47:23;1.10;;;1.00;;
53694;SDS011;39588;51.124;7.190;2023-08-30T10:49:56;1.37;;;1.27;;
53694;SDS011;39588;51.124;7.190;2023-08-30T10:52:23;1.97;;;1.77;;
53694;SDS011;39588;51.124;7.190;2023-08-30T10:54:49;1.17;;;1.07;;
53694;SDS011;39588;51.124;7.190;2023-08-30T10:57:17;1.20;;;1.20;;
53694;SDS011;39588;51.124;7.190;2023-08-30T11:02:43;1.00;;;1.00;;
53694;SDS011;39588;51.124;7.190;2023-08-30T11:05:14;2.20;;;2.00;;
53694;SDS011;39588;51.124;7.190;2023-08-30T11:07:41;3.63;;;2.33;;
53694;SDS011;39588;51.124;7.190;2023-08-30T11:10:11;3.03;;;1.33;;
53694;SDS011;39588;51.124;7.190;2023-08-30T11:12:39;1.13;;;1.13;;
53694;SDS011;39588;51.124;7.190;2023-08-30T11:15:06;1.37;;;1.37;;
53694;SDS011;39588;51.124;7.190;2023-08-30T11:17:33;16.83;;;2.07;;
53694;SDS011;39588;51.124;7.190;2023-08-30T11:20:07;3.53;;;1.30;;
53694;SDS011;39588;51.124;7.190;2023-08-30T11:22:51;1.17;;;1.17;;
53694;SDS011;39588;51.124;7.190;2023-08-30T11:25:21;1.40;;;1.30;;
53694;SDS011;39588;51.124;7.190;2023-08-30T11:27:47;10.60;;;1.53;;
53694;SDS011;39588;51.124;7.190;2023-08-30T11:30:13;2.13;;;2.03;;
53694;SDS011;39588;51.124;7.190;2023-08-30T11:32:39;2.73;;;1.07;;
53694;SDS011;39588;51.124;7.190;2023-08-30T11:35:09;1.93;;;1.83;;
53694;SDS011;39588;51.124;7.190;2023-08-30T11:37:35;1.30;;;1.30;;
53694;SDS011;39588;51.124;7.190;2023-08-30T11:40:02;1.30;;;1.20;;
53694;SDS011;39588;51.124;7.190;2023-08-30T11:42:30;0.93;;;0.93;;
53694;SDS011;39588;51.124;7.190;2023-08-30T11:44:57;2.03;;;1.10;;
53694;SDS011;39588;51.124;7.190;2023-08-30T11:47:25;1.23;;;1.13;;
53694;SDS011;39588;51.124;7.190;2023-08-30T11:49:54;0.63;;;0.63;;
53694;SDS011;39588;51.124;7.190;2023-08-30T11:52:21;0.97;;;0.97;;
53694;SDS011;39588;51.124;7.190;2023-08-30T11:54:48;0.70;;;0.70;;
53694;SDS011;39588;51.124;7.190;2023-08-30T11:57:14;0.70;;;0.70;;
53694;SDS011;39588;51.124;7.190;2023-08-30T11:59:40;0.37;;;0.37;;
53694;SDS011;39588;51.124;7.190;2023-08-30T12:02:09;1.10;;;1.00;;
53694;SDS011;39588;51.124;7.190;2023-08-30T12:04:40;0.40;;;0.40;;
53694;SDS011;39588;51.124;7.190;2023-08-30T12:07:06;1.10;;;0.70;;
53694;SDS011;39588;51.124;7.190;2023-08-30T12:09:33;0.67;;;0.50;;
53694;SDS011;39588;51.124;7.190;2023-08-30T12:12:11;0.77;;;0.77;;
53694;SDS011;39588;51.124;7.190;2023-08-30T12:14:37;0.43;;;0.43;;
53694;SDS011;39588;51.124;7.190;2023-08-30T12:17:03;0.27;;;0.27;;
53694;SDS011;39588;51.124;7.190;2023-08-30T12:19:30;0.50;;;0.50;;
53694;SDS011;39588;51.124;7.190;2023-08-30T12:21:56;1.63;;;1.17;;
53694;SDS011;39588;51.124;7.190;2023-08-30T12:24:44;0.80;;;0.80;;
53694;SDS011;39588;51.124;7.190;2023-08-30T12:27:11;0.77;;;0.77;;
53694;SDS011;39588;51.124;7.190;2023-08-30T12:29:36;0.67;;;0.67;;
53694;SDS011;39588;51.124;7.190;2023-08-30T12:32:03;0.73;;;0.70;;
53694;SDS011;39588;51.124;7.190;2023-08-30T12:34:28;0.40;;;0.40;;
53694;SDS011;39588;51.124;7.190;2023-08-30T12:36:54;0.60;;;0.60;;
53694;SDS011;39588;51.124;7.190;2023-08-30T12:39:20;0.60;;;0.60;;
53694;SDS011;39588;51.124;7.190;2023-08-30T12:41:46;0.67;;;0.67;;
53694;SDS011;39588;51.124;7.190;2023-08-30T12:44:12;0.47;;;0.47;;
53694;SDS011;39588;51.124;7.190;2023-08-30T12:46:37;0.80;;;0.80;;
53694;SDS011;39588;51.124;7.190;2023-08-30T12:49:03;0.70;;;0.70;;
53694;SDS011;39588;51.124;7.190;2023-08-30T12:51:30;0.20;;;0.20;;
53694;SDS011;39588;51.124;7.190;2023-08-30T12:53:56;0.80;;;0.80;;
53694;SDS011;39588;51.124;7.190;2023-08-30T12:56:21;0.50;;;0.50;;
53694;SDS011;39588;51.124;7.190;2023-08-30T12:58:47;0.57;;;0.57;;
53694;SDS011;39588;51.124;7.190;2023-08-30T13:01:13;1.30;;;0.67;;
53694;SDS011;39588;51.124;7.190;2023-08-30T13:03:39;0.50;;;0.47;;
53694;SDS011;39588;51.124;7.190;2023-08-30T13:06:05;0.90;;;0.90;;
53694;SDS011;39588;51.124;7.190;2023-08-30T13:08:31;0.40;;;0.40;;
53694;SDS011;39588;51.124;7.190;2023-08-30T13:10:59;0.30;;;0.30;;
53694;SDS011;39588;51.124;7.190;2023-08-30T13:13:25;3.77;;;0.47;;
53694;SDS011;39588;51.124;7.190;2023-08-30T13:15:50;0.30;;;0.30;;
53694;SDS011;39588;51.124;7.190;2023-08-30T13:18:16;0.87;;;0.73;;
53694;SDS011;39588;51.124;7.190;2023-08-30T13:20:42;0.47;;;0.47;;
53694;SDS011;39588;51.124;7.190;2023-08-30T13:23:08;1.00;;;0.87;;
53694;SDS011;39588;51.124;7.190;2023-08-30T13:25:37;0.60;;;0.60;;
53694;SDS011;39588;51.124;7.190;2023-08-30T13:28:06;0.50;;;0.50;;
53694;SDS011;39588;51.124;7.190;2023-08-30T13:30:33;0.73;;;0.40;;
53694;SDS011;39588;51.124;7.190;2023-08-30T13:32:59;0.67;;;0.50;;
53694;SDS011;39588;51.124;7.190;2023-08-30T13:35:24;0.60;;;0.60;;
53694;SDS011;39588;51.124;7.190;2023-08-30T13:37:50;2.13;;;0.60;;
53694;SDS011;39588;51.124;7.190;2023-08-30T13:40:16;0.37;;;0.37;;
53694;SDS011;39588;51.124;7.190;2023-08-30T13:42:42;0.70;;;0.70;;
53694;SDS011;39588;51.124;7.190;2023-08-30T13:45:08;0.67;;;0.67;;
53694;SDS011;39588;51.124;7.190;2023-08-30T13:47:35;0.33;;;0.30;;
53694;SDS011;39588;51.124;7.190;2023-08-30T13:50:00;0.80;;;0.60;;
53694;SDS011;39588;51.124;7.190;2023-08-30T13:52:26;0.30;;;0.30;;
53694;SDS011;39588;51.124;7.190;2023-08-30T13:54:54;0.33;;;0.33;;
53694;SDS011;39588;51.124;7.190;2023-08-30T13:57:20;0.60;;;0.60;;
53694;SDS011;39588;51.124;7.190;2023-08-30T13:59:45;0.77;;;0.50;;
53694;SDS011;39588;51.124;7.190;2023-08-30T14:02:11;1.33;;;0.87;;
53694;SDS011;39588;51.124;7.190;2023-08-30T14:04:37;1.20;;;1.10;;
53694;SDS011;39588;51.124;7.190;2023-08-30T14:07:03;0.83;;;0.37;;
53694;SDS011;39588;51.124;7.190;2023-08-30T14:09:29;0.67;;;0.67;;
53694;SDS011;39588;51.124;7.190;2023-08-30T14:11:54;0.30;;;0.30;;
53694;SDS011;39588;51.124;7.190;2023-08-30T14:14:20;0.53;;;0.53;;
53694;SDS011;39588;51.124;7.190;2023-08-30T14:16:46;2.73;;;1.23;;
53694;SDS011;39588;51.124;7.190;2023-08-30T14:19:12;0.77;;;0.73;;
53694;SDS011;39588;51.124;7.190;2023-08-30T14:21:40;1.00;;;1.00;;
53694;SDS011;39588;51.124;7.190;2023-08-30T14:24:05;0.90;;;0.90;;
53694;SDS011;39588;51.124;7.190;2023-08-30T14:26:31;0.50;;;0.50;;
53694;SDS011;39588;51.124;7.190;2023-08-30T14:28:57;0.63;;;0.63;;
53694;SDS011;39588;51.124;7.190;2023-08-30T14:31:22;0.47;;;0.47;;
53694;SDS011;39588;51.124;7.190;2023-08-30T14:33:49;0.60;;;0.60;;
53694;SDS011;39588;51.124;7.190;2023-08-30T14:36:14;0.50;;;0.50;;
53694;SDS011;39588;51.124;7.190;2023-08-30T14:38:41;0.67;;;0.67;;
53694;SDS011;39588;51.124;7.190;2023-08-30T14:41:07;0.77;;;0.77;;
53694;SDS011;39588;51.124;7.190;2023-08-30T14:43:33;0.20;;;0.20;;
53694;SDS011;39588;51.124;7.190;2023-08-30T14:45:59;1.60;;;1.50;;
53694;SDS011;39588;51.124;7.190;2023-08-30T14:48:29;0.50;;;0.50;;
53694;SDS011;39588;51.124;7.190;2023-08-30T14:50:57;0.97;;;0.97;;
53694;SDS011;39588;51.124;7.190;2023-08-30T14:53:23;0.60;;;0.60;;
53694;SDS011;39588;51.124;7.190;2023-08-30T14:55:49;1.50;;;0.80;;
53694;SDS011;39588;51.124;7.190;2023-08-30T14:58:14;0.70;;;0.70;;
53694;SDS011;39588;51.124;7.190;2023-08-30T15:00:40;0.80;;;0.80;;